Chicago Ridge, Illinois
Current Conditions -  °F | °C
As of 3:33 PM on Friday 31 Oct 2014 (Local Time) from KMDW Reporting Station
Light Snow Light Snow  
Wind Chill: 29°   Ceiling: 3400
Heat Index: 40°   Visibility: 7mi
Dew Point: 27°   Wind: 24mph
Humidity: 60%   Direction: 350°N
Pressure: 30.19"   Gusts: 37mph
Location:  41.7°N, 87.78°W
Report Text: KMDW 312033Z 35021G32KT 7SM -SN SCT027 OVC034 04/M03 A3019 RMK AO2 PK WND 36033/2013 P0000 T00441028
Loading
Personal Weather Stations






























Interactive Weather Map
Tropical Storm Tracking
New forecast layout! Learn more

10-Day Weather Forecast

Advertisements
Track Severe Weather on mobile